createdAt,value
2023-05-05T00:00:54.679Z,431.00
2023-05-05T00:01:54.718Z,400.00
2023-05-05T00:02:54.715Z,400.00
2023-05-05T00:03:54.687Z,400.00
2023-05-05T00:04:54.714Z,408.00
2023-05-05T00:05:54.674Z,424.00
2023-05-05T00:06:54.662Z,445.00
2023-05-05T00:07:54.669Z,471.00
2023-05-05T00:08:54.662Z,497.00
2023-05-05T00:09:54.719Z,500.00
2023-05-05T00:10:54.693Z,501.00
2023-05-05T00:11:54.652Z,499.00
2023-05-05T00:12:54.672Z,500.00
2023-05-05T00:13:54.680Z,500.00
2023-05-05T00:14:54.687Z,500.00
2023-05-05T00:15:54.728Z,504.00
2023-05-05T00:16:54.821Z,500.00
2023-05-05T00:17:54.862Z,501.00
2023-05-05T00:18:54.810Z,501.00
2023-05-05T00:19:54.849Z,500.00
2023-05-05T00:20:54.918Z,501.00
2023-05-05T00:21:54.971Z,500.00
2023-05-05T00:22:55.027Z,500.00
2023-05-05T00:23:55.072Z,503.00
2023-05-05T00:24:55.095Z,502.00
2023-05-05T00:25:55.135Z,501.00
2023-05-05T00:26:55.220Z,500.00
2023-05-05T00:27:55.248Z,502.00
2023-05-05T00:28:55.275Z,502.00
2023-05-05T00:29:55.300Z,500.00
2023-05-05T00:30:55.390Z,501.00
2023-05-05T00:31:55.428Z,501.00
2023-05-05T00:32:55.539Z,500.00
2023-05-05T00:33:55.571Z,503.00
2023-05-05T00:34:55.635Z,503.00
2023-05-05T00:35:55.694Z,504.00
2023-05-05T00:36:55.757Z,500.00
2023-05-05T00:37:55.828Z,500.00
2023-05-05T00:38:55.907Z,500.00
2023-05-05T00:39:55.972Z,500.00
2023-05-05T00:40:56.046Z,502.00
2023-05-05T00:41:56.133Z,503.00
2023-05-05T00:42:56.193Z,502.00
2023-05-05T00:43:56.246Z,503.00
2023-05-05T00:44:56.294Z,500.00
2023-05-05T00:45:56.365Z,501.00
2023-05-05T00:46:57.202Z,502.00
2023-05-05T00:47:56.493Z,500.00
2023-05-05T00:48:56.572Z,500.00
2023-05-05T00:49:56.574Z,504.00
2023-05-05T00:50:56.648Z,505.00
2023-05-05T00:51:56.703Z,502.00
2023-05-05T00:52:56.786Z,502.00
2023-05-05T00:53:56.903Z,502.00
2023-05-05T00:54:56.907Z,502.00
2023-05-05T00:55:57.022Z,502.00
2023-05-05T00:56:57.074Z,502.00
2023-05-05T00:57:57.129Z,503.00
2023-05-05T00:58:57.216Z,500.00
2023-05-05T00:59:57.245Z,500.00
2023-05-05T01:00:57.303Z,504.00
2023-05-05T01:01:57.495Z,503.00
2023-05-05T01:02:57.468Z,504.00
2023-05-05T01:03:57.500Z,501.00
2023-05-05T01:04:57.523Z,503.00
2023-05-05T01:05:57.587Z,501.00
2023-05-05T01:06:57.646Z,501.00
2023-05-05T01:07:57.713Z,500.00
2023-05-05T01:08:57.778Z,500.00
2023-05-05T01:10:15.627Z,502.00
2023-05-05T01:10:57.837Z,503.00
2023-05-05T01:11:57.837Z,504.00
2023-05-05T01:12:57.859Z,503.00
2023-05-05T01:13:57.832Z,503.00
2023-05-05T01:14:57.858Z,502.00
2023-05-05T01:15:57.850Z,502.00
2023-05-05T01:16:57.811Z,500.00
2023-05-05T01:17:57.861Z,502.00
2023-05-05T01:18:57.796Z,501.00
2023-05-05T01:19:57.795Z,503.00
2023-05-05T01:20:57.784Z,503.00
2023-05-05T01:21:57.781Z,503.00
2023-05-05T01:22:57.775Z,500.00
2023-05-05T01:23:57.764Z,505.00
2023-05-05T01:24:57.767Z,500.00
2023-05-05T01:25:57.759Z,505.00
2023-05-05T01:26:57.756Z,503.00
2023-05-05T01:27:57.789Z,505.00
2023-05-05T01:28:57.770Z,503.00
2023-05-05T01:29:57.763Z,506.00
2023-05-05T01:30:57.775Z,509.00
2023-05-05T01:31:57.852Z,508.00
2023-05-05T01:32:57.827Z,503.00
2023-05-05T01:33:57.736Z,502.00
2023-05-05T01:34:57.740Z,504.00
2023-05-05T01:35:57.754Z,507.00
2023-05-05T01:36:57.794Z,504.00
2023-05-05T01:37:57.857Z,502.00
2023-05-05T01:38:57.923Z,503.00
2023-05-05T01:39:57.967Z,502.00
2023-05-05T01:40:58.045Z,500.00
2023-05-05T01:41:58.113Z,506.00
2023-05-05T01:42:58.199Z,505.00
2023-05-05T01:43:58.265Z,507.00
2023-05-05T01:44:58.343Z,505.00
2023-05-05T01:45:58.445Z,502.00
2023-05-05T01:46:58.515Z,503.00
2023-05-05T01:47:58.603Z,501.00
2023-05-05T01:48:58.644Z,504.00
2023-05-05T01:49:58.692Z,502.00
2023-05-05T01:50:58.751Z,505.00
2023-05-05T01:51:58.837Z,501.00
2023-05-05T01:52:58.876Z,504.00
2023-05-05T01:53:58.932Z,503.00
2023-05-05T01:54:58.992Z,503.00
2023-05-05T01:55:59.066Z,502.00
2023-05-05T01:56:59.126Z,506.00
2023-05-05T01:57:59.177Z,504.00
2023-05-05T01:58:59.245Z,507.00
2023-05-05T01:59:59.301Z,503.00
2023-05-05T02:00:59.363Z,506.00
2023-05-05T02:01:59.391Z,504.00
2023-05-05T02:02:59.604Z,507.00
2023-05-05T02:03:59.456Z,505.00
2023-05-05T02:04:59.457Z,503.00
2023-05-05T02:05:59.490Z,503.00
2023-05-05T02:06:59.519Z,506.00
2023-05-05T02:07:59.539Z,505.00
2023-05-05T02:08:59.541Z,504.00
2023-05-05T02:09:59.551Z,503.00
2023-05-05T02:10:59.584Z,503.00
2023-05-05T02:11:59.624Z,502.00
2023-05-05T02:12:59.693Z,504.00
2023-05-05T02:13:59.698Z,506.00
2023-05-05T02:14:59.714Z,506.00
2023-05-05T02:15:59.784Z,506.00
2023-05-05T02:16:59.741Z,506.00
2023-05-05T02:17:59.780Z,506.00
2023-05-05T02:18:59.797Z,505.00
2023-05-05T02:19:59.797Z,503.00
2023-05-05T02:20:59.818Z,505.00
2023-05-05T02:21:59.829Z,508.00
2023-05-05T02:22:59.867Z,505.00
2023-05-05T02:23:59.928Z,506.00
2023-05-05T02:24:59.938Z,500.00
2023-05-05T02:25:59.971Z,505.00
2023-05-05T02:27:00.588Z,508.00
2023-05-05T02:28:00.009Z,506.00
2023-05-05T02:29:00.046Z,502.00
2023-05-05T02:29:59.996Z,504.00
2023-05-05T02:31:00.085Z,502.00
2023-05-05T02:32:00.006Z,505.00
2023-05-05T02:33:00.054Z,504.00
2023-05-05T02:33:59.988Z,507.00
2023-05-05T02:35:00.036Z,506.00
2023-05-05T02:36:00.080Z,507.00
2023-05-05T02:37:00.104Z,502.00
2023-05-05T02:38:00.189Z,505.00
2023-05-05T02:39:00.199Z,509.00
2023-05-05T02:40:00.316Z,504.00
2023-05-05T02:41:00.322Z,505.00
2023-05-05T02:42:00.376Z,503.00
2023-05-05T02:43:00.432Z,504.00
2023-05-05T02:44:00.410Z,501.00
2023-05-05T02:45:00.432Z,504.00
2023-05-05T02:46:00.447Z,503.00
2023-05-05T02:47:00.449Z,501.00
2023-05-05T02:48:00.470Z,507.00
2023-05-05T02:49:00.446Z,506.00
2023-05-05T02:50:00.463Z,504.00
2023-05-05T02:51:00.506Z,506.00
2023-05-05T02:52:00.498Z,502.00
2023-05-05T02:53:00.526Z,503.00
2023-05-05T02:54:00.507Z,503.00
2023-05-05T02:55:00.538Z,503.00
2023-05-05T02:56:00.538Z,504.00
2023-05-05T02:57:00.536Z,501.00
2023-05-05T02:58:00.592Z,505.00
2023-05-05T02:59:00.567Z,502.00
2023-05-05T03:00:00.594Z,502.00
2023-05-05T03:01:00.601Z,503.00
2023-05-05T03:02:00.667Z,507.00
2023-05-05T03:03:00.699Z,507.00
2023-05-05T03:04:00.712Z,502.00
2023-05-05T03:05:00.728Z,505.00
2023-05-05T03:06:00.732Z,505.00
2023-05-05T03:07:00.733Z,504.00
2023-05-05T03:08:00.700Z,504.00
2023-05-05T03:09:00.694Z,501.00
2023-05-05T03:10:00.702Z,504.00
2023-05-05T03:11:00.711Z,504.00
2023-05-05T03:12:00.738Z,502.00
2023-05-05T03:13:00.846Z,503.00
2023-05-05T03:14:00.761Z,502.00
2023-05-05T03:15:00.759Z,506.00
2023-05-05T03:16:00.773Z,503.00
2023-05-05T03:17:00.780Z,507.00
2023-05-05T03:18:00.853Z,504.00
2023-05-05T03:19:00.812Z,504.00
2023-05-05T03:20:03.454Z,503.00
2023-05-05T03:21:00.805Z,503.00
2023-05-05T03:22:00.806Z,504.00
2023-05-05T03:23:00.820Z,504.00
2023-05-05T03:24:00.796Z,504.00
2023-05-05T03:25:00.790Z,505.00
2023-05-05T03:26:00.786Z,503.00
2023-05-05T03:27:00.784Z,503.00
2023-05-05T03:28:00.771Z,504.00
2023-05-05T03:29:00.776Z,503.00
2023-05-05T03:30:00.776Z,506.00
2023-05-05T03:31:00.760Z,505.00
2023-05-05T03:32:00.771Z,508.00
2023-05-05T03:33:00.737Z,505.00
2023-05-05T03:34:00.721Z,508.00
2023-05-05T03:35:00.722Z,500.00
2023-05-05T03:36:00.699Z,504.00
2023-05-05T03:37:00.696Z,504.00
2023-05-05T03:38:00.687Z,503.00
2023-05-05T03:39:00.691Z,507.00
2023-05-05T03:40:00.671Z,503.00
2023-05-05T03:41:00.649Z,501.00
2023-05-05T03:42:00.629Z,501.00
2023-05-05T03:43:00.622Z,500.00
2023-05-05T03:44:00.617Z,502.00
2023-05-05T03:45:00.622Z,502.00
2023-05-05T03:46:00.669Z,505.00
2023-05-05T03:47:00.610Z,504.00
2023-05-05T03:48:00.658Z,502.00
2023-05-05T03:49:00.592Z,504.00
2023-05-05T03:50:00.588Z,502.00
2023-05-05T03:51:00.554Z,502.00
2023-05-05T03:52:00.568Z,504.00
2023-05-05T03:53:00.559Z,500.00
2023-05-05T03:54:00.543Z,505.00
2023-05-05T03:55:00.561Z,506.00
2023-05-05T03:56:00.556Z,501.00
2023-05-05T03:57:00.520Z,508.00
2023-05-05T03:58:00.549Z,508.00
2023-05-05T03:59:00.500Z,505.00
2023-05-05T04:00:00.502Z,501.00
2023-05-05T04:01:00.480Z,502.00
2023-05-05T04:02:00.549Z,502.00
2023-05-05T04:03:00.505Z,503.00
2023-05-05T04:04:00.516Z,502.00
2023-05-05T04:05:00.423Z,501.00
2023-05-05T04:06:00.420Z,501.00
2023-05-05T04:07:00.405Z,504.00
2023-05-05T04:08:00.398Z,505.00
2023-05-05T04:09:00.395Z,504.00
2023-05-05T04:10:00.400Z,505.00
2023-05-05T04:11:00.417Z,505.00
2023-05-05T04:12:00.362Z,506.00
2023-05-05T04:13:00.430Z,507.00
2023-05-05T04:14:00.354Z,505.00
2023-05-05T04:15:00.380Z,506.00
2023-05-05T04:16:00.447Z,506.00
2023-05-05T04:17:00.359Z,505.00
2023-05-05T04:18:00.353Z,506.00
2023-05-05T04:19:01.134Z,508.00
2023-05-05T04:20:00.331Z,508.00
2023-05-05T04:21:00.318Z,505.00
2023-05-05T04:22:00.301Z,506.00
2023-05-05T04:23:00.298Z,505.00
2023-05-05T04:24:00.294Z,502.00
2023-05-05T04:25:00.306Z,501.00
2023-05-05T04:26:00.276Z,505.00
2023-05-05T04:27:00.278Z,507.00
2023-05-05T04:28:00.291Z,506.00
2023-05-05T04:29:00.236Z,505.00
2023-05-05T04:30:00.248Z,504.00
2023-05-05T04:31:00.278Z,503.00
2023-05-05T04:32:00.220Z,505.00
2023-05-05T04:33:00.338Z,505.00
2023-05-05T04:34:00.229Z,503.00
2023-05-05T04:35:00.189Z,505.00
2023-05-05T04:36:00.206Z,505.00
2023-05-05T04:37:00.176Z,508.00
2023-05-05T04:38:00.171Z,503.00
2023-05-05T04:39:00.238Z,505.00
2023-05-05T04:40:00.161Z,503.00
2023-05-05T04:41:00.174Z,504.00
2023-05-05T04:42:00.168Z,504.00
2023-05-05T04:43:00.148Z,503.00
2023-05-05T04:44:00.164Z,505.00
2023-05-05T04:45:00.140Z,505.00
2023-05-05T04:46:00.166Z,504.00
2023-05-05T04:47:00.133Z,503.00
2023-05-05T04:48:00.178Z,502.00
2023-05-05T04:49:00.147Z,502.00
2023-05-05T04:50:00.145Z,504.00
2023-05-05T04:51:00.134Z,502.00
2023-05-05T04:52:00.085Z,506.00
2023-05-05T04:53:00.088Z,505.00
2023-05-05T04:54:00.083Z,503.00
2023-05-05T04:55:00.076Z,505.00
2023-05-05T04:56:00.058Z,507.00
2023-05-05T04:57:00.046Z,504.00
2023-05-05T04:58:00.043Z,503.00
2023-05-05T04:59:00.056Z,506.00
2023-05-05T05:00:00.040Z,507.00
2023-05-05T05:01:00.017Z,506.00
2023-05-05T05:02:00.076Z,501.00
2023-05-05T05:03:00.059Z,504.00
2023-05-05T05:04:00.112Z,505.00
2023-05-05T05:05:00.011Z,503.00
2023-05-05T05:06:00.015Z,502.00
2023-05-05T05:07:00.008Z,504.00
2023-05-05T05:08:00.008Z,503.00
2023-05-05T05:08:59.995Z,506.00
2023-05-05T05:09:59.996Z,504.00
2023-05-05T05:10:59.989Z,504.00
2023-05-05T05:11:59.998Z,501.00
2023-05-05T05:13:00.211Z,504.00
2023-05-05T05:13:59.998Z,500.00
2023-05-05T05:15:00.098Z,501.00
2023-05-05T05:16:00.287Z,500.00
2023-05-05T05:16:59.974Z,501.00
2023-05-05T05:18:00.269Z,503.00
2023-05-05T05:19:01.609Z,502.00
2023-05-05T05:19:59.961Z,507.00
2023-05-05T05:21:00.180Z,509.00
2023-05-05T05:21:59.938Z,506.00
2023-05-05T05:23:00.197Z,500.00
2023-05-05T05:23:59.935Z,500.00
2023-05-05T05:24:59.915Z,501.00
2023-05-05T05:25:59.903Z,502.00
2023-05-05T05:26:59.907Z,500.00
2023-05-05T05:28:09.496Z,500.00
2023-05-05T05:28:59.897Z,501.00
2023-05-05T05:29:59.896Z,502.00
2023-05-05T05:30:59.908Z,501.00
2023-05-05T05:32:00.220Z,497.00
2023-05-05T05:32:59.889Z,490.00
2023-05-05T05:33:59.847Z,500.00
2023-05-05T05:34:59.834Z,500.00
2023-05-05T05:35:59.828Z,502.00
2023-05-05T05:36:59.830Z,500.00
2023-05-05T05:37:59.845Z,500.00
2023-05-05T05:38:59.804Z,499.00
2023-05-05T05:39:59.805Z,503.00
2023-05-05T05:40:59.784Z,502.00
2023-05-05T05:42:00.164Z,502.00
2023-05-05T05:42:59.777Z,505.00
2023-05-05T05:43:59.822Z,508.00
2023-05-05T05:44:59.778Z,510.00
2023-05-05T05:45:59.762Z,517.00
2023-05-05T05:47:00.226Z,517.00
2023-05-05T05:47:59.840Z,516.00
2023-05-05T05:48:59.746Z,517.00
2023-05-05T05:49:59.746Z,518.00
2023-05-05T05:50:59.723Z,525.00
2023-05-05T05:52:00.186Z,530.00
2023-05-05T05:53:15.772Z,538.00
2023-05-05T05:53:59.744Z,539.00
2023-05-05T05:54:59.703Z,542.00
2023-05-05T05:55:59.690Z,551.00
2023-05-05T05:57:01.169Z,565.00
2023-05-05T05:58:02.894Z,597.00
2023-05-05T05:58:59.697Z,541.00
2023-05-05T06:01:15.260Z,542.00
2023-05-05T06:01:59.871Z,542.00
2023-05-05T06:02:59.830Z,554.00
2023-05-05T06:04:15.303Z,573.00
2023-05-05T06:05:06.990Z,542.00
2023-05-05T06:06:06.968Z,543.00
2023-05-05T06:06:59.561Z,543.00
2023-05-05T06:07:59.543Z,560.00
2023-05-05T06:08:59.677Z,587.00
2023-05-05T06:10:02.967Z,622.00
2023-05-05T06:11:00.641Z,543.00
2023-05-05T06:12:07.067Z,545.00
2023-05-05T06:13:15.194Z,544.00
2023-05-05T06:14:06.890Z,544.00
2023-05-05T06:15:02.664Z,545.00
2023-05-05T06:16:00.512Z,545.00
2023-05-05T06:17:15.281Z,566.00
2023-05-05T06:17:59.457Z,544.00
2023-05-05T06:18:59.439Z,566.00
2023-05-05T06:19:59.386Z,599.00
2023-05-05T06:21:02.596Z,652.00
2023-05-05T06:22:02.700Z,545.00
2023-05-05T06:23:14.949Z,545.00
2023-05-05T06:23:59.697Z,545.00
2023-05-05T06:24:59.312Z,567.00
2023-05-05T06:25:59.318Z,601.00
2023-05-05T06:27:00.721Z,648.00
2023-05-05T06:27:59.305Z,780.00
2023-05-05T06:29:00.298Z,791.00
2023-05-05T06:29:59.387Z,776.00
2023-05-05T06:30:59.365Z,759.00
2023-05-05T06:31:59.285Z,750.00
2023-05-05T06:32:59.358Z,730.00
2023-05-05T06:33:59.274Z,746.00
2023-05-05T06:34:59.293Z,740.00
2023-05-05T06:35:59.277Z,734.00
2023-05-05T06:36:59.262Z,709.00
2023-05-05T06:37:59.265Z,715.00
2023-05-05T06:39:00.721Z,698.00
2023-05-05T06:39:59.277Z,697.00
2023-05-05T06:40:59.247Z,699.00
2023-05-05T06:41:59.246Z,661.00
2023-05-05T06:42:59.230Z,661.00
2023-05-05T06:43:59.710Z,658.00
2023-05-05T06:44:59.168Z,666.00
2023-05-05T06:45:59.653Z,676.00
2023-05-05T06:47:31.129Z,652.00
2023-05-05T06:47:59.210Z,653.00
2023-05-05T06:48:59.201Z,659.00
2023-05-05T06:49:59.083Z,667.00
2023-05-05T06:50:59.248Z,685.00
2023-05-05T06:51:59.048Z,700.00
2023-05-05T06:52:59.042Z,755.00
2023-05-05T12:17:29.453Z,500.00
2023-05-05T12:18:30.372Z,500.00
2023-05-05T12:19:30.350Z,500.00
2023-05-05T12:20:30.333Z,500.00
2023-05-05T12:21:30.305Z,500.00
2023-05-05T12:22:30.282Z,500.00
2023-05-05T12:23:30.274Z,498.00
2023-05-05T12:24:30.263Z,499.00
2023-05-05T12:25:30.240Z,498.00
2023-05-05T12:26:30.224Z,500.00
2023-05-05T12:27:30.204Z,507.00
2023-05-05T12:28:30.184Z,500.00
2023-05-05T12:29:30.177Z,500.00
2023-05-05T12:30:30.187Z,498.00
2023-05-05T12:31:30.154Z,500.00
2023-05-05T12:32:30.131Z,508.00
2023-05-05T12:33:30.226Z,507.00
2023-05-05T12:34:30.092Z,500.00
2023-05-05T12:35:30.150Z,500.00
2023-05-05T12:36:30.578Z,506.00
2023-05-05T12:37:30.039Z,502.00
2023-05-05T12:38:30.051Z,511.00
2023-05-05T12:39:30.016Z,511.00
2023-05-05T12:40:30.051Z,503.00
2023-05-05T12:41:29.960Z,505.00
2023-05-05T12:42:29.955Z,500.00
2023-05-05T12:43:29.959Z,505.00
2023-05-05T12:44:29.955Z,517.00
2023-05-05T12:45:29.986Z,500.00
2023-05-05T12:46:30.077Z,500.00
2023-05-05T12:47:30.088Z,504.00
2023-05-05T12:48:30.114Z,505.00
2023-05-05T12:49:30.233Z,512.00
2023-05-05T12:50:30.616Z,530.00
2023-05-05T12:51:30.225Z,523.00
2023-05-05T12:52:30.254Z,523.00
2023-05-05T12:53:30.293Z,514.00
2023-05-05T12:54:30.330Z,540.00
2023-05-05T12:55:30.618Z,524.00
2023-05-05T12:56:30.431Z,505.00
2023-05-05T12:57:30.455Z,500.00
2023-05-05T12:58:30.494Z,509.00
2023-05-05T12:59:30.542Z,517.00
2023-05-05T13:00:30.601Z,522.00
2023-05-05T13:01:30.662Z,513.00
2023-05-05T13:02:30.726Z,508.00
2023-05-05T13:03:30.808Z,526.00
2023-05-05T13:04:30.751Z,527.00
2023-05-05T13:05:30.892Z,545.00
2023-05-05T13:06:30.826Z,560.00
2023-05-05T13:07:30.880Z,567.00
2023-05-05T13:08:30.915Z,557.00
2023-05-05T13:09:30.957Z,583.00
2023-05-05T13:10:31.005Z,587.00
2023-05-05T13:11:31.034Z,589.00
2023-05-05T13:12:31.123Z,600.00
2023-05-05T13:13:31.106Z,600.00
2023-05-05T13:14:31.163Z,563.00
2023-05-05T13:15:31.207Z,553.00
2023-05-05T13:16:31.224Z,581.00
2023-05-05T13:17:32.774Z,632.00
2023-05-05T13:18:31.217Z,757.00
2023-05-05T13:19:31.206Z,866.00
2023-05-05T13:20:31.187Z,951.00
2023-05-05T13:21:31.250Z,989.00
2023-05-05T13:22:31.127Z,1035.00
2023-05-05T13:23:31.108Z,1022.00
2023-05-05T13:24:42.268Z,1001.00
2023-05-05T13:25:31.133Z,1003.00
2023-05-05T13:26:31.073Z,1012.00
2023-05-05T13:27:31.048Z,1027.00
2023-05-05T13:28:31.025Z,1061.00
2023-05-05T13:29:31.770Z,1108.00
2023-05-05T13:30:31.003Z,1141.00
2023-05-05T13:31:31.018Z,1169.00
2023-05-05T13:32:30.996Z,1164.00
2023-05-05T13:33:30.915Z,1154.00
2023-05-05T13:34:30.904Z,1162.00
2023-05-05T13:35:30.871Z,1184.00
2023-05-05T13:36:30.853Z,1181.00
2023-05-05T13:37:30.971Z,1149.00
2023-05-05T13:38:30.812Z,1079.00
2023-05-05T13:39:30.789Z,1040.00
2023-05-05T13:40:30.824Z,1011.00
2023-05-05T13:41:30.879Z,1042.00
2023-05-05T13:42:30.947Z,1085.00
2023-05-05T13:43:30.977Z,1071.00
2023-05-05T13:44:31.026Z,1037.00
2023-05-05T13:45:31.072Z,1052.00
2023-05-05T13:46:31.134Z,1109.00
2023-05-05T13:47:31.176Z,1092.00
2023-05-05T13:48:31.631Z,1058.00
2023-05-05T13:49:31.261Z,991.00
2023-05-05T13:50:31.301Z,976.00
2023-05-05T13:51:31.645Z,988.00
2023-05-05T13:52:31.840Z,985.00
2023-05-05T13:53:31.538Z,992.00
2023-05-05T13:54:31.351Z,977.00
2023-05-05T13:55:31.320Z,966.00
2023-05-05T13:56:31.299Z,907.00
2023-05-05T13:57:31.259Z,908.00
2023-05-05T13:58:31.233Z,899.00
2023-05-05T13:59:31.208Z,862.00
2023-05-05T14:00:31.912Z,833.00
2023-05-05T14:01:31.301Z,827.00
2023-05-05T14:02:31.179Z,806.00
2023-05-05T14:03:31.141Z,848.00
2023-05-05T14:04:31.180Z,828.00
2023-05-05T14:05:31.084Z,772.00
2023-05-05T14:06:31.072Z,757.00
2023-05-05T14:07:31.045Z,766.00
2023-05-05T14:08:31.035Z,709.00
2023-05-05T14:09:31.035Z,665.00
2023-05-05T14:10:30.977Z,637.00
2023-05-05T14:11:30.957Z,638.00
2023-05-05T14:12:30.964Z,641.00
2023-05-05T14:13:30.997Z,627.00
2023-05-05T14:14:31.081Z,632.00
2023-05-05T14:15:31.148Z,623.00
2023-05-05T14:16:31.170Z,639.00
2023-05-05T14:17:31.196Z,657.00
2023-05-05T14:18:31.211Z,687.00
2023-05-05T14:19:31.261Z,739.00
2023-05-05T14:20:31.308Z,718.00
2023-05-05T14:21:31.354Z,755.00
2023-05-05T14:22:31.414Z,721.00
2023-05-05T14:23:31.497Z,644.00
2023-05-05T14:24:31.501Z,628.00
2023-05-05T14:25:31.576Z,654.00
2023-05-05T14:26:31.610Z,658.00
2023-05-05T14:27:31.658Z,647.00
2023-05-05T14:28:32.225Z,631.00
2023-05-05T14:29:31.759Z,646.00
2023-05-05T14:30:31.811Z,629.00
2023-05-05T14:31:31.862Z,612.00
2023-05-05T14:32:31.918Z,599.00
2023-05-05T14:33:31.943Z,594.00
2023-05-05T14:34:32.045Z,584.00
2023-05-05T14:35:32.058Z,581.00
2023-05-05T14:36:32.108Z,579.00
2023-05-05T14:37:32.146Z,579.00
2023-05-05T14:38:32.203Z,575.00
2023-05-05T14:39:32.229Z,568.00
2023-05-05T14:40:32.271Z,562.00
2023-05-05T14:41:32.430Z,577.00
2023-05-05T14:42:32.359Z,585.00
2023-05-05T14:43:32.410Z,579.00
2023-05-05T14:44:32.474Z,571.00
2023-05-05T14:45:32.510Z,570.00
2023-05-05T14:46:32.743Z,562.00
2023-05-05T14:47:32.649Z,559.00
2023-05-05T14:48:32.686Z,560.00
2023-05-05T14:49:32.734Z,545.00
2023-05-05T14:50:32.801Z,555.00
2023-05-05T14:51:32.827Z,552.00
2023-05-05T14:52:32.876Z,541.00
2023-05-05T14:53:32.958Z,554.00
2023-05-05T14:54:32.987Z,567.00
2023-05-05T14:55:33.021Z,553.00
2023-05-05T14:56:33.052Z,562.00
2023-05-05T14:58:00.133Z,500.00
2023-05-05T14:59:01.017Z,500.00
2023-05-05T15:00:00.979Z,500.00
2023-05-05T15:01:00.974Z,500.00
2023-05-05T15:02:00.999Z,500.00
2023-05-05T15:03:00.971Z,506.00
2023-05-05T15:04:00.974Z,499.00
2023-05-05T15:05:00.892Z,501.00
2023-05-05T15:06:01.224Z,511.00
2023-05-05T15:07:00.856Z,513.00
2023-05-05T15:08:00.855Z,501.00
2023-05-05T15:09:00.816Z,502.00
2023-05-05T15:10:00.821Z,506.00
2023-05-05T15:11:00.791Z,514.00
2023-05-05T15:12:00.791Z,521.00
2023-05-05T15:13:00.833Z,539.00
2023-05-05T15:14:00.833Z,524.00
2023-05-05T15:15:00.732Z,528.00
2023-05-05T15:16:00.743Z,536.00
2023-05-05T15:17:00.689Z,559.00
2023-05-05T15:18:00.739Z,578.00
2023-05-05T15:19:00.662Z,580.00
2023-05-05T15:20:00.663Z,591.00
2023-05-05T15:21:00.620Z,620.00
2023-05-05T15:22:00.679Z,646.00
2023-05-05T15:23:00.682Z,646.00
2023-05-05T15:24:00.709Z,701.00
2023-05-05T15:25:00.751Z,731.00
2023-05-05T15:26:00.848Z,730.00
2023-05-05T15:27:00.849Z,688.00
2023-05-05T15:28:00.957Z,712.00
2023-05-05T15:29:00.934Z,664.00
2023-05-05T15:30:01.130Z,729.00
2023-05-05T15:31:01.009Z,762.00
2023-05-05T15:32:01.130Z,771.00
2023-05-05T15:33:01.028Z,801.00
2023-05-05T15:34:01.021Z,851.00
2023-05-05T15:35:01.029Z,853.00
2023-05-05T15:36:01.064Z,890.00
2023-05-05T15:37:01.137Z,888.00
2023-05-05T15:38:01.132Z,942.00
2023-05-05T15:39:01.174Z,949.00
2023-05-05T15:40:01.191Z,979.00
2023-05-05T15:41:01.230Z,980.00
2023-05-05T15:42:01.225Z,990.00
2023-05-05T15:43:01.270Z,1022.00
2023-05-05T15:44:01.251Z,1025.00
2023-05-05T15:45:01.266Z,1062.00
2023-05-05T15:46:01.377Z,1090.00
2023-05-05T15:47:01.269Z,1083.00
2023-05-05T15:48:01.389Z,1101.00
2023-05-05T15:49:01.324Z,1114.00
2023-05-05T15:50:01.371Z,1135.00
2023-05-05T15:51:01.381Z,1110.00
2023-05-05T15:52:01.399Z,1134.00
2023-05-05T15:53:01.457Z,1169.00
2023-05-05T15:54:01.474Z,1171.00
2023-05-05T15:55:01.598Z,1175.00
2023-05-05T15:56:01.537Z,1159.00
2023-05-05T15:57:01.563Z,1185.00
2023-05-05T15:58:01.593Z,1186.00
2023-05-05T15:59:01.645Z,1194.00
2023-05-05T16:00:01.645Z,1219.00
2023-05-05T16:01:01.662Z,1199.00
2023-05-05T16:02:01.754Z,1222.00
2023-05-05T16:03:01.766Z,1219.00
2023-05-05T16:04:01.700Z,1221.00
2023-05-05T16:05:01.704Z,1248.00
2023-05-05T16:06:01.689Z,1258.00
2023-05-05T16:07:01.685Z,1271.00
2023-05-05T16:08:01.679Z,1261.00
2023-05-05T16:09:01.684Z,1280.00
2023-05-05T16:10:01.681Z,1275.00
2023-05-05T16:11:01.683Z,1307.00
2023-05-05T16:12:01.608Z,1304.00
2023-05-05T16:13:01.604Z,1314.00
2023-05-05T16:14:01.598Z,1335.00
2023-05-05T16:15:01.597Z,1324.00
2023-05-05T16:16:01.643Z,1322.00
2023-05-05T16:17:01.618Z,1356.00
2023-05-05T16:18:01.745Z,1337.00
2023-05-05T16:19:01.549Z,1368.00
2023-05-05T16:20:01.652Z,1364.00
2023-05-05T16:21:01.496Z,1371.00
2023-05-05T16:22:01.491Z,1356.00
2023-05-05T16:23:01.468Z,1381.00
2023-05-05T16:24:01.469Z,1378.00
2023-05-05T16:25:01.452Z,1381.00
2023-05-05T16:26:01.427Z,1394.00
2023-05-05T16:27:01.414Z,1378.00
2023-05-05T16:28:01.411Z,1405.00
2023-05-05T16:29:01.425Z,1424.00
2023-05-05T16:30:01.398Z,1407.00
2023-05-05T16:31:01.389Z,1422.00
2023-05-05T16:32:01.411Z,1425.00
2023-05-05T16:33:01.420Z,1431.00
2023-05-05T16:34:01.500Z,1423.00
2023-05-05T16:35:01.358Z,1438.00
2023-05-05T16:36:01.346Z,1430.00
2023-05-05T16:37:01.352Z,1460.00
2023-05-05T16:38:01.349Z,1464.00
2023-05-05T16:39:01.309Z,1469.00
2023-05-05T16:40:01.310Z,1478.00
2023-05-05T16:41:01.292Z,1497.00
2023-05-05T16:42:01.262Z,1486.00
2023-05-05T16:43:01.244Z,1486.00
2023-05-05T16:44:01.224Z,1507.00
2023-05-05T16:45:01.206Z,1487.00
2023-05-05T16:46:01.205Z,1506.00
2023-05-05T16:47:01.179Z,1519.00
2023-05-05T16:48:01.256Z,1504.00
2023-05-05T16:49:01.168Z,1531.00
2023-05-05T16:50:01.173Z,1501.00
2023-05-05T16:51:01.162Z,1537.00
2023-05-05T16:52:01.134Z,1532.00
2023-05-05T16:53:01.132Z,1546.00
2023-05-05T16:54:01.120Z,1541.00
2023-05-05T16:55:01.124Z,1543.00
2023-05-05T16:56:01.123Z,1568.00
2023-05-05T16:57:01.101Z,1560.00
2023-05-05T16:58:01.112Z,1559.00
2023-05-05T16:59:01.088Z,1555.00
2023-05-05T17:00:01.072Z,1565.00
2023-05-05T17:01:01.063Z,1575.00
2023-05-05T17:02:01.179Z,1573.00
2023-05-05T17:03:01.061Z,1581.00
2023-05-05T17:04:01.032Z,1585.00
2023-05-05T17:05:01.060Z,1583.00
2023-05-05T17:06:01.180Z,1592.00
2023-05-05T17:07:00.995Z,1603.00
2023-05-05T17:08:00.979Z,1596.00
2023-05-05T17:09:00.956Z,1598.00
2023-05-05T17:10:00.933Z,1606.00
2023-05-05T17:11:00.944Z,1598.00
2023-05-05T17:12:00.943Z,1583.00
2023-05-05T17:13:00.949Z,1597.00
2023-05-05T17:14:00.908Z,1595.00
2023-05-05T17:15:00.889Z,1604.00
2023-05-05T17:16:00.969Z,1606.00
2023-05-05T17:17:00.861Z,1625.00
2023-05-05T17:18:00.888Z,1605.00
2023-05-05T17:19:00.842Z,1611.00
2023-05-05T17:20:00.836Z,1620.00
2023-05-05T17:21:00.910Z,1628.00
2023-05-05T17:22:00.878Z,1633.00
2023-05-05T17:23:00.809Z,1613.00
2023-05-05T17:24:00.800Z,1616.00
2023-05-05T17:25:00.777Z,1626.00
2023-05-05T17:26:00.770Z,1641.00
2023-05-05T17:27:00.772Z,1624.00
2023-05-05T17:28:00.755Z,1636.00
2023-05-05T17:29:00.779Z,1638.00
2023-05-05T17:30:00.751Z,1624.00
2023-05-05T17:31:00.739Z,1638.00
2023-05-05T17:32:00.752Z,1632.00
2023-05-05T17:33:00.744Z,1648.00
2023-05-05T17:34:00.694Z,1642.00
2023-05-05T17:35:00.681Z,1632.00
2023-05-05T17:36:00.670Z,1618.00
2023-05-05T17:37:00.780Z,1644.00
2023-05-05T17:38:00.752Z,1634.00
2023-05-05T17:39:00.642Z,1634.00
2023-05-05T17:40:00.661Z,1648.00
2023-05-05T17:41:01.644Z,1655.00
2023-05-05T17:42:01.362Z,1645.00
2023-05-05T17:43:01.333Z,1647.00
2023-05-05T17:44:01.340Z,1632.00
2023-05-05T17:45:00.670Z,1656.00
2023-05-05T17:46:01.132Z,1649.00
2023-05-05T17:47:00.780Z,1639.00
2023-05-05T17:48:01.358Z,1642.00
2023-05-05T17:49:00.678Z,1648.00